sensor_id;sensor_type;location;lat;lon;timestamp;P1;durP1;ratioP1;P2;durP2;ratioP2
55718;SDS011;41623;46.104;19.656;2022-07-23T00:00:39;10.60;;;5.18;;
55718;SDS011;41623;46.104;19.656;2022-07-23T00:03:06;13.55;;;5.28;;
55718;SDS011;41623;46.104;19.656;2022-07-23T00:05:31;9.15;;;5.03;;
55718;SDS011;41623;46.104;19.656;2022-07-23T00:07:57;6.25;;;3.70;;
55718;SDS011;41623;46.104;19.656;2022-07-23T00:10:23;12.23;;;4.70;;
55718;SDS011;41623;46.104;19.656;2022-07-23T00:12:49;7.05;;;3.40;;
55718;SDS011;41623;46.104;19.656;2022-07-23T00:15:15;5.35;;;3.20;;
55718;SDS011;41623;46.104;19.656;2022-07-23T00:17:42;6.93;;;3.05;;
55718;SDS011;41623;46.104;19.656;2022-07-23T00:20:08;4.78;;;2.88;;
55718;SDS011;41623;46.104;19.656;2022-07-23T00:22:34;7.75;;;3.22;;
55718;SDS011;41623;46.104;19.656;2022-07-23T00:25:02;8.43;;;3.20;;
55718;SDS011;41623;46.104;19.656;2022-07-23T00:27:28;5.80;;;3.58;;
55718;SDS011;41623;46.104;19.656;2022-07-23T00:29:55;6.70;;;4.43;;
55718;SDS011;41623;46.104;19.656;2022-07-23T00:32:20;5.00;;;3.33;;
55718;SDS011;41623;46.104;19.656;2022-07-23T00:34:46;5.85;;;2.88;;
55718;SDS011;41623;46.104;19.656;2022-07-23T00:37:12;7.25;;;3.28;;
55718;SDS011;41623;46.104;19.656;2022-07-23T00:39:38;9.98;;;3.60;;
55718;SDS011;41623;46.104;19.656;2022-07-23T00:42:05;9.75;;;3.95;;
55718;SDS011;41623;46.104;19.656;2022-07-23T00:44:31;7.00;;;3.47;;
55718;SDS011;41623;46.104;19.656;2022-07-23T00:46:58;6.40;;;3.83;;
55718;SDS011;41623;46.104;19.656;2022-07-23T00:49:25;6.72;;;3.72;;
55718;SDS011;41623;46.104;19.656;2022-07-23T00:51:52;6.32;;;3.58;;
55718;SDS011;41623;46.104;19.656;2022-07-23T00:54:19;8.02;;;4.70;;
55718;SDS011;41623;46.104;19.656;2022-07-23T00:56:48;9.35;;;3.35;;
55718;SDS011;41623;46.104;19.656;2022-07-23T00:59:17;7.10;;;3.38;;
55718;SDS011;41623;46.104;19.656;2022-07-23T01:01:43;6.25;;;2.85;;
55718;SDS011;41623;46.104;19.656;2022-07-23T01:04:10;8.40;;;4.55;;
55718;SDS011;41623;46.104;19.656;2022-07-23T01:06:36;9.98;;;5.65;;
55718;SDS011;41623;46.104;19.656;2022-07-23T01:09:04;9.05;;;4.22;;
55718;SDS011;41623;46.104;19.656;2022-07-23T01:11:33;4.95;;;2.78;;
55718;SDS011;41623;46.104;19.656;2022-07-23T01:14:07;5.20;;;2.97;;
55718;SDS011;41623;46.104;19.656;2022-07-23T01:16:33;4.90;;;2.63;;
55718;SDS011;41623;46.104;19.656;2022-07-23T01:18:59;11.00;;;3.38;;
55718;SDS011;41623;46.104;19.656;2022-07-23T01:21:25;6.85;;;3.42;;
55718;SDS011;41623;46.104;19.656;2022-07-23T01:23:51;6.53;;;3.58;;
55718;SDS011;41623;46.104;19.656;2022-07-23T01:26:16;5.28;;;3.15;;
55718;SDS011;41623;46.104;19.656;2022-07-23T01:28:43;7.13;;;3.05;;
55718;SDS011;41623;46.104;19.656;2022-07-23T01:31:09;4.32;;;2.30;;
55718;SDS011;41623;46.104;19.656;2022-07-23T01:33:35;5.57;;;3.33;;
55718;SDS011;41623;46.104;19.656;2022-07-23T01:36:01;10.05;;;3.80;;
55718;SDS011;41623;46.104;19.656;2022-07-23T01:38:27;8.38;;;3.20;;
55718;SDS011;41623;46.104;19.656;2022-07-23T01:40:53;5.18;;;2.92;;
55718;SDS011;41623;46.104;19.656;2022-07-23T01:43:18;4.38;;;2.30;;
55718;SDS011;41623;46.104;19.656;2022-07-23T01:45:44;4.80;;;2.83;;
55718;SDS011;41623;46.104;19.656;2022-07-23T01:48:10;4.53;;;2.67;;
55718;SDS011;41623;46.104;19.656;2022-07-23T01:50:36;15.52;;;2.72;;
55718;SDS011;41623;46.104;19.656;2022-07-23T01:53:04;4.15;;;2.42;;
55718;SDS011;41623;46.104;19.656;2022-07-23T01:55:30;5.55;;;2.38;;
55718;SDS011;41623;46.104;19.656;2022-07-23T01:57:55;4.50;;;2.47;;
55718;SDS011;41623;46.104;19.656;2022-07-23T02:00:21;4.22;;;2.80;;
55718;SDS011;41623;46.104;19.656;2022-07-23T02:02:47;8.88;;;3.05;;
55718;SDS011;41623;46.104;19.656;2022-07-23T02:05:13;3.70;;;2.40;;
55718;SDS011;41623;46.104;19.656;2022-07-23T02:07:39;4.07;;;2.63;;
55718;SDS011;41623;46.104;19.656;2022-07-23T02:10:05;4.43;;;2.85;;
55718;SDS011;41623;46.104;19.656;2022-07-23T02:12:31;9.88;;;3.25;;
55718;SDS011;41623;46.104;19.656;2022-07-23T02:14:57;4.72;;;3.10;;
55718;SDS011;41623;46.104;19.656;2022-07-23T02:17:23;6.22;;;3.22;;
55718;SDS011;41623;46.104;19.656;2022-07-23T02:19:48;8.27;;;2.95;;
55718;SDS011;41623;46.104;19.656;2022-07-23T02:22:15;5.70;;;3.13;;
55718;SDS011;41623;46.104;19.656;2022-07-23T02:24:41;4.47;;;2.00;;
55718;SDS011;41623;46.104;19.656;2022-07-23T02:27:07;4.22;;;2.63;;
55718;SDS011;41623;46.104;19.656;2022-07-23T02:29:32;6.65;;;2.40;;
55718;SDS011;41623;46.104;19.656;2022-07-23T02:31:58;5.72;;;2.33;;
55718;SDS011;41623;46.104;19.656;2022-07-23T02:34:24;5.03;;;2.70;;
55718;SDS011;41623;46.104;19.656;2022-07-23T02:36:50;4.60;;;2.60;;
55718;SDS011;41623;46.104;19.656;2022-07-23T02:39:15;5.20;;;2.65;;
55718;SDS011;41623;46.104;19.656;2022-07-23T02:41:41;7.38;;;2.53;;
55718;SDS011;41623;46.104;19.656;2022-07-23T02:44:07;4.70;;;3.38;;
55718;SDS011;41623;46.104;19.656;2022-07-23T02:46:33;6.53;;;2.30;;
55718;SDS011;41623;46.104;19.656;2022-07-23T02:48:58;3.63;;;2.33;;
55718;SDS011;41623;46.104;19.656;2022-07-23T02:51:24;5.72;;;2.97;;
55718;SDS011;41623;46.104;19.656;2022-07-23T02:53:50;8.57;;;2.70;;
55718;SDS011;41623;46.104;19.656;2022-07-23T02:56:15;7.18;;;3.92;;
55718;SDS011;41623;46.104;19.656;2022-07-23T02:58:41;13.35;;;6.88;;
55718;SDS011;41623;46.104;19.656;2022-07-23T03:01:07;5.28;;;4.10;;
55718;SDS011;41623;46.104;19.656;2022-07-23T03:03:33;6.05;;;3.38;;
55718;SDS011;41623;46.104;19.656;2022-07-23T03:05:59;6.57;;;3.30;;
55718;SDS011;41623;46.104;19.656;2022-07-23T03:08:24;7.05;;;3.35;;
55718;SDS011;41623;46.104;19.656;2022-07-23T03:10:50;7.68;;;3.15;;
55718;SDS011;41623;46.104;19.656;2022-07-23T03:13:16;10.35;;;3.25;;
55718;SDS011;41623;46.104;19.656;2022-07-23T03:15:42;6.90;;;3.50;;
55718;SDS011;41623;46.104;19.656;2022-07-23T03:18:08;6.50;;;3.33;;
55718;SDS011;41623;46.104;19.656;2022-07-23T03:20:33;7.18;;;3.20;;
55718;SDS011;41623;46.104;19.656;2022-07-23T03:22:59;13.63;;;3.08;;
55718;SDS011;41623;46.104;19.656;2022-07-23T03:25:25;9.18;;;2.60;;
55718;SDS011;41623;46.104;19.656;2022-07-23T03:27:51;5.18;;;3.08;;
55718;SDS011;41623;46.104;19.656;2022-07-23T03:30:16;5.60;;;2.63;;
55718;SDS011;41623;46.104;19.656;2022-07-23T03:32:42;6.78;;;3.42;;
55718;SDS011;41623;46.104;19.656;2022-07-23T03:35:08;6.10;;;2.97;;
55718;SDS011;41623;46.104;19.656;2022-07-23T03:37:35;5.10;;;3.22;;
55718;SDS011;41623;46.104;19.656;2022-07-23T03:40:01;6.43;;;3.30;;
55718;SDS011;41623;46.104;19.656;2022-07-23T03:42:27;5.25;;;3.00;;
55718;SDS011;41623;46.104;19.656;2022-07-23T03:44:58;5.10;;;3.05;;
55718;SDS011;41623;46.104;19.656;2022-07-23T03:47:24;5.20;;;3.35;;
55718;SDS011;41623;46.104;19.656;2022-07-23T03:49:49;6.25;;;3.13;;
55718;SDS011;41623;46.104;19.656;2022-07-23T03:52:15;3.13;;;2.40;;
55718;SDS011;41623;46.104;19.656;2022-07-23T03:54:41;8.88;;;3.55;;
55718;SDS011;41623;46.104;19.656;2022-07-23T03:57:07;7.47;;;3.75;;
55718;SDS011;41623;46.104;19.656;2022-07-23T03:59:32;5.93;;;3.35;;
55718;SDS011;41623;46.104;19.656;2022-07-23T04:01:58;7.15;;;3.38;;
55718;SDS011;41623;46.104;19.656;2022-07-23T04:04:25;6.63;;;3.30;;
55718;SDS011;41623;46.104;19.656;2022-07-23T04:06:51;8.40;;;3.75;;
55718;SDS011;41623;46.104;19.656;2022-07-23T04:09:17;12.15;;;4.18;;
55718;SDS011;41623;46.104;19.656;2022-07-23T04:11:43;9.20;;;4.07;;
55718;SDS011;41623;46.104;19.656;2022-07-23T04:14:09;8.48;;;3.78;;
55718;SDS011;41623;46.104;19.656;2022-07-23T04:16:34;6.45;;;4.30;;
55718;SDS011;41623;46.104;19.656;2022-07-23T04:19:00;9.27;;;3.83;;
55718;SDS011;41623;46.104;19.656;2022-07-23T04:21:26;7.50;;;3.67;;
55718;SDS011;41623;46.104;19.656;2022-07-23T04:23:52;10.25;;;2.83;;
55718;SDS011;41623;46.104;19.656;2022-07-23T04:26:18;7.50;;;3.38;;
55718;SDS011;41623;46.104;19.656;2022-07-23T04:28:44;6.82;;;3.53;;
55718;SDS011;41623;46.104;19.656;2022-07-23T04:31:10;6.75;;;3.35;;
55718;SDS011;41623;46.104;19.656;2022-07-23T04:33:36;6.43;;;3.17;;
55718;SDS011;41623;46.104;19.656;2022-07-23T04:36:02;11.13;;;4.28;;
55718;SDS011;41623;46.104;19.656;2022-07-23T04:38:28;6.95;;;3.72;;
55718;SDS011;41623;46.104;19.656;2022-07-23T04:40:54;5.82;;;3.42;;
55718;SDS011;41623;46.104;19.656;2022-07-23T04:43:21;5.43;;;3.40;;
55718;SDS011;41623;46.104;19.656;2022-07-23T04:45:47;14.30;;;7.22;;
55718;SDS011;41623;46.104;19.656;2022-07-23T04:48:13;19.80;;;11.75;;
55718;SDS011;41623;46.104;19.656;2022-07-23T04:50:39;7.53;;;3.55;;
55718;SDS011;41623;46.104;19.656;2022-07-23T04:53:05;5.68;;;3.38;;
55718;SDS011;41623;46.104;19.656;2022-07-23T04:55:31;5.32;;;2.67;;
55718;SDS011;41623;46.104;19.656;2022-07-23T04:57:57;3.97;;;2.55;;
55718;SDS011;41623;46.104;19.656;2022-07-23T05:00:22;3.88;;;2.45;;
55718;SDS011;41623;46.104;19.656;2022-07-23T05:02:48;8.57;;;3.20;;
55718;SDS011;41623;46.104;19.656;2022-07-23T05:05:14;6.63;;;3.10;;
55718;SDS011;41623;46.104;19.656;2022-07-23T05:07:40;5.72;;;3.22;;
55718;SDS011;41623;46.104;19.656;2022-07-23T05:10:06;4.53;;;2.72;;
55718;SDS011;41623;46.104;19.656;2022-07-23T05:12:32;7.85;;;3.50;;
55718;SDS011;41623;46.104;19.656;2022-07-23T05:14:58;10.07;;;3.28;;
55718;SDS011;41623;46.104;19.656;2022-07-23T05:17:24;4.65;;;2.45;;
55718;SDS011;41623;46.104;19.656;2022-07-23T05:19:50;10.32;;;3.00;;
55718;SDS011;41623;46.104;19.656;2022-07-23T05:22:16;7.85;;;3.55;;
55718;SDS011;41623;46.104;19.656;2022-07-23T05:24:42;7.10;;;4.53;;
55718;SDS011;41623;46.104;19.656;2022-07-23T05:27:08;8.95;;;4.82;;
55718;SDS011;41623;46.104;19.656;2022-07-23T05:29:34;10.23;;;4.50;;
55718;SDS011;41623;46.104;19.656;2022-07-23T05:31:59;10.07;;;4.60;;
55718;SDS011;41623;46.104;19.656;2022-07-23T05:34:25;8.35;;;3.78;;
55718;SDS011;41623;46.104;19.656;2022-07-23T05:36:51;6.40;;;3.65;;
55718;SDS011;41623;46.104;19.656;2022-07-23T05:39:17;6.43;;;3.72;;
55718;SDS011;41623;46.104;19.656;2022-07-23T05:41:43;15.15;;;3.38;;
55718;SDS011;41623;46.104;19.656;2022-07-23T05:44:09;15.45;;;3.60;;
55718;SDS011;41623;46.104;19.656;2022-07-23T05:46:35;5.55;;;3.15;;
55718;SDS011;41623;46.104;19.656;2022-07-23T05:49:00;3.50;;;2.20;;
55718;SDS011;41623;46.104;19.656;2022-07-23T05:51:27;3.72;;;2.25;;
55718;SDS011;41623;46.104;19.656;2022-07-23T05:53:53;5.13;;;2.95;;
55718;SDS011;41623;46.104;19.656;2022-07-23T05:56:19;5.07;;;2.35;;
55718;SDS011;41623;46.104;19.656;2022-07-23T05:58:44;5.95;;;2.97;;
55718;SDS011;41623;46.104;19.656;2022-07-23T06:01:10;4.40;;;2.83;;
55718;SDS011;41623;46.104;19.656;2022-07-23T06:03:39;3.63;;;2.35;;
55718;SDS011;41623;46.104;19.656;2022-07-23T06:06:05;6.28;;;2.30;;
55718;SDS011;41623;46.104;19.656;2022-07-23T06:08:31;3.78;;;2.28;;
55718;SDS011;41623;46.104;19.656;2022-07-23T06:10:57;10.43;;;3.25;;
55718;SDS011;41623;46.104;19.656;2022-07-23T06:13:23;4.88;;;2.60;;
55718;SDS011;41623;46.104;19.656;2022-07-23T06:15:54;3.80;;;2.47;;
55718;SDS011;41623;46.104;19.656;2022-07-23T06:18:24;9.82;;;2.83;;
55718;SDS011;41623;46.104;19.656;2022-07-23T06:20:50;6.10;;;3.05;;
55718;SDS011;41623;46.104;19.656;2022-07-23T06:23:16;3.90;;;2.70;;
55718;SDS011;41623;46.104;19.656;2022-07-23T06:25:42;5.20;;;3.05;;
55718;SDS011;41623;46.104;19.656;2022-07-23T06:28:08;8.55;;;4.07;;
55718;SDS011;41623;46.104;19.656;2022-07-23T06:30:34;6.43;;;3.58;;
55718;SDS011;41623;46.104;19.656;2022-07-23T06:33:00;19.55;;;3.17;;
55718;SDS011;41623;46.104;19.656;2022-07-23T06:35:27;4.78;;;2.60;;
55718;SDS011;41623;46.104;19.656;2022-07-23T06:37:52;3.10;;;2.35;;
55718;SDS011;41623;46.104;19.656;2022-07-23T06:40:18;3.25;;;2.35;;
55718;SDS011;41623;46.104;19.656;2022-07-23T06:42:45;6.35;;;3.00;;
55718;SDS011;41623;46.104;19.656;2022-07-23T06:45:11;4.15;;;2.22;;
55718;SDS011;41623;46.104;19.656;2022-07-23T06:47:37;3.65;;;2.47;;
55718;SDS011;41623;46.104;19.656;2022-07-23T06:50:03;10.63;;;2.75;;
55718;SDS011;41623;46.104;19.656;2022-07-23T06:52:30;3.15;;;2.25;;
55718;SDS011;41623;46.104;19.656;2022-07-23T06:54:56;5.20;;;2.67;;
55718;SDS011;41623;46.104;19.656;2022-07-23T06:57:22;4.18;;;2.65;;
55718;SDS011;41623;46.104;19.656;2022-07-23T06:59:50;7.18;;;3.20;;
55718;SDS011;41623;46.104;19.656;2022-07-23T07:02:16;9.48;;;3.75;;
55718;SDS011;41623;46.104;19.656;2022-07-23T07:04:42;4.55;;;3.15;;
55718;SDS011;41623;46.104;19.656;2022-07-23T07:07:09;9.98;;;3.03;;
55718;SDS011;41623;46.104;19.656;2022-07-23T07:09:35;13.82;;;3.80;;
55718;SDS011;41623;46.104;19.656;2022-07-23T07:12:02;9.00;;;3.10;;
55718;SDS011;41623;46.104;19.656;2022-07-23T07:14:28;6.40;;;2.47;;
55718;SDS011;41623;46.104;19.656;2022-07-23T07:16:53;5.43;;;2.28;;
55718;SDS011;41623;46.104;19.656;2022-07-23T07:19:19;6.07;;;3.00;;
55718;SDS011;41623;46.104;19.656;2022-07-23T07:21:47;5.32;;;3.88;;
55718;SDS011;41623;46.104;19.656;2022-07-23T07:24:13;3.45;;;2.53;;
55718;SDS011;41623;46.104;19.656;2022-07-23T07:26:39;11.80;;;2.63;;
55718;SDS011;41623;46.104;19.656;2022-07-23T07:29:05;3.80;;;2.08;;
55718;SDS011;41623;46.104;19.656;2022-07-23T07:31:31;3.47;;;2.03;;
55718;SDS011;41623;46.104;19.656;2022-07-23T07:33:58;9.20;;;2.47;;
55718;SDS011;41623;46.104;19.656;2022-07-23T07:36:24;18.27;;;3.35;;
55718;SDS011;41623;46.104;19.656;2022-07-23T07:38:50;4.32;;;2.58;;
55718;SDS011;41623;46.104;19.656;2022-07-23T07:41:15;6.30;;;2.45;;
55718;SDS011;41623;46.104;19.656;2022-07-23T07:43:41;8.48;;;2.90;;
55718;SDS011;41623;46.104;19.656;2022-07-23T07:46:07;5.57;;;2.45;;
55718;SDS011;41623;46.104;19.656;2022-07-23T07:48:36;10.00;;;3.50;;
55718;SDS011;41623;46.104;19.656;2022-07-23T07:51:03;3.35;;;2.42;;
55718;SDS011;41623;46.104;19.656;2022-07-23T07:53:30;3.85;;;2.00;;
55718;SDS011;41623;46.104;19.656;2022-07-23T07:55:55;3.30;;;2.00;;
55718;SDS011;41623;46.104;19.656;2022-07-23T07:58:21;4.13;;;2.60;;
55718;SDS011;41623;46.104;19.656;2022-07-23T08:00:47;8.57;;;2.35;;
55718;SDS011;41623;46.104;19.656;2022-07-23T08:03:13;4.55;;;2.58;;
55718;SDS011;41623;46.104;19.656;2022-07-23T08:05:39;3.97;;;2.25;;
55718;SDS011;41623;46.104;19.656;2022-07-23T08:08:05;4.35;;;2.60;;
55718;SDS011;41623;46.104;19.656;2022-07-23T08:10:31;2.97;;;2.08;;
55718;SDS011;41623;46.104;19.656;2022-07-23T08:12:57;6.15;;;1.98;;
55718;SDS011;41623;46.104;19.656;2022-07-23T08:15:24;6.15;;;2.95;;
55718;SDS011;41623;46.104;19.656;2022-07-23T08:17:52;4.75;;;3.33;;
55718;SDS011;41623;46.104;19.656;2022-07-23T08:20:19;4.30;;;2.80;;
55718;SDS011;41623;46.104;19.656;2022-07-23T08:22:48;4.30;;;2.60;;
55718;SDS011;41623;46.104;19.656;2022-07-23T08:27:46;3.40;;;1.80;;
55718;SDS011;41623;46.104;19.656;2022-07-23T08:30:12;6.20;;;3.25;;
55718;SDS011;41623;46.104;19.656;2022-07-23T08:32:51;5.88;;;2.65;;
55718;SDS011;41623;46.104;19.656;2022-07-23T08:35:22;5.72;;;2.17;;
55718;SDS011;41623;46.104;19.656;2022-07-23T08:38:00;4.15;;;2.00;;
55718;SDS011;41623;46.104;19.656;2022-07-23T08:40:31;3.85;;;1.92;;
55718;SDS011;41623;46.104;19.656;2022-07-23T08:42:58;3.15;;;1.73;;
55718;SDS011;41623;46.104;19.656;2022-07-23T08:45:26;4.25;;;1.67;;
55718;SDS011;41623;46.104;19.656;2022-07-23T08:47:56;3.45;;;2.35;;
55718;SDS011;41623;46.104;19.656;2022-07-23T08:53:47;10.07;;;2.22;;
55718;SDS011;41623;46.104;19.656;2022-07-23T08:56:13;3.70;;;2.70;;
55718;SDS011;41623;46.104;19.656;2022-07-23T08:58:39;4.75;;;2.25;;
55718;SDS011;41623;46.104;19.656;2022-07-23T09:01:05;4.18;;;2.10;;
55718;SDS011;41623;46.104;19.656;2022-07-23T09:03:32;3.10;;;2.10;;
55718;SDS011;41623;46.104;19.656;2022-07-23T09:06:00;4.10;;;2.00;;
55718;SDS011;41623;46.104;19.656;2022-07-23T09:08:37;2.42;;;1.75;;
55718;SDS011;41623;46.104;19.656;2022-07-23T09:11:05;3.15;;;1.73;;
55718;SDS011;41623;46.104;19.656;2022-07-23T09:18:53;2.58;;;1.70;;
55718;SDS011;41623;46.104;19.656;2022-07-23T09:21:23;4.10;;;2.17;;
55718;SDS011;41623;46.104;19.656;2022-07-23T09:27:15;2.67;;;1.92;;
55718;SDS011;41623;46.104;19.656;2022-07-23T09:33:03;2.45;;;1.70;;
55718;SDS011;41623;46.104;19.656;2022-07-23T09:35:47;7.72;;;2.05;;
55718;SDS011;41623;46.104;19.656;2022-07-23T09:38:13;4.18;;;1.88;;
55718;SDS011;41623;46.104;19.656;2022-07-23T09:40:39;7.50;;;1.83;;
55718;SDS011;41623;46.104;19.656;2022-07-23T09:43:05;1.50;;;1.23;;
55718;SDS011;41623;46.104;19.656;2022-07-23T09:45:31;1.67;;;1.30;;
55718;SDS011;41623;46.104;19.656;2022-07-23T09:48:10;8.85;;;2.95;;
55718;SDS011;41623;46.104;19.656;2022-07-23T09:50:43;3.95;;;2.47;;
55718;SDS011;41623;46.104;19.656;2022-07-23T09:53:09;5.35;;;3.28;;
55718;SDS011;41623;46.104;19.656;2022-07-23T09:55:49;2.95;;;2.35;;
55718;SDS011;41623;46.104;19.656;2022-07-23T09:58:18;2.60;;;1.80;;
55718;SDS011;41623;46.104;19.656;2022-07-23T10:00:47;3.03;;;1.60;;
55718;SDS011;41623;46.104;19.656;2022-07-23T10:03:14;2.83;;;1.88;;
55718;SDS011;41623;46.104;19.656;2022-07-23T10:05:42;1.92;;;1.48;;
55718;SDS011;41623;46.104;19.656;2022-07-23T10:08:11;12.60;;;1.40;;
55718;SDS011;41623;46.104;19.656;2022-07-23T10:10:40;4.05;;;1.65;;
55718;SDS011;41623;46.104;19.656;2022-07-23T10:13:07;3.10;;;1.65;;
55718;SDS011;41623;46.104;19.656;2022-07-23T10:15:40;2.28;;;1.73;;
55718;SDS011;41623;46.104;19.656;2022-07-23T10:18:09;2.75;;;1.75;;
55718;SDS011;41623;46.104;19.656;2022-07-23T10:20:36;4.28;;;1.85;;
55718;SDS011;41623;46.104;19.656;2022-07-23T10:23:08;3.10;;;1.58;;
55718;SDS011;41623;46.104;19.656;2022-07-23T10:37:32;2.55;;;1.98;;
55718;SDS011;41623;46.104;19.656;2022-07-23T10:40:13;3.78;;;2.42;;
55718;SDS011;41623;46.104;19.656;2022-07-23T10:42:47;1.70;;;1.50;;
55718;SDS011;41623;46.104;19.656;2022-07-23T10:48:11;2.63;;;1.90;;
55718;SDS011;41623;46.104;19.656;2022-07-23T10:50:39;2.22;;;1.55;;
55718;SDS011;41623;46.104;19.656;2022-07-23T10:53:09;3.47;;;2.10;;
55718;SDS011;41623;46.104;19.656;2022-07-23T10:58:08;2.22;;;1.42;;
55718;SDS011;41623;46.104;19.656;2022-07-23T11:00:34;2.85;;;1.63;;
55718;SDS011;41623;46.104;19.656;2022-07-23T11:03:03;3.58;;;2.10;;
55718;SDS011;41623;46.104;19.656;2022-07-23T11:05:43;5.38;;;1.92;;
55718;SDS011;41623;46.104;19.656;2022-07-23T11:08:14;1.73;;;1.50;;
55718;SDS011;41623;46.104;19.656;2022-07-23T11:10:54;5.85;;;2.03;;
55718;SDS011;41623;46.104;19.656;2022-07-23T11:13:28;2.58;;;1.60;;
55718;SDS011;41623;46.104;19.656;2022-07-23T11:19:03;2.07;;;1.03;;
55718;SDS011;41623;46.104;19.656;2022-07-23T11:31:57;1.75;;;1.25;;
55718;SDS011;41623;46.104;19.656;2022-07-23T11:34:45;6.45;;;1.73;;
55718;SDS011;41623;46.104;19.656;2022-07-23T11:37:29;3.83;;;2.00;;
55718;SDS011;41623;46.104;19.656;2022-07-23T11:40:06;5.85;;;1.70;;
55718;SDS011;41623;46.104;19.656;2022-07-23T11:42:52;6.15;;;2.65;;
55718;SDS011;41623;46.104;19.656;2022-07-23T11:45:18;6.18;;;2.15;;
55718;SDS011;41623;46.104;19.656;2022-07-23T11:47:44;14.02;;;1.58;;
55718;SDS011;41623;46.104;19.656;2022-07-23T11:50:10;4.32;;;1.55;;
55718;SDS011;41623;46.104;19.656;2022-07-23T11:52:36;2.50;;;1.60;;
55718;SDS011;41623;46.104;19.656;2022-07-23T11:55:07;4.35;;;1.60;;
55718;SDS011;41623;46.104;19.656;2022-07-23T11:57:35;1.83;;;1.25;;
55718;SDS011;41623;46.104;19.656;2022-07-23T12:00:09;5.13;;;1.60;;
55718;SDS011;41623;46.104;19.656;2022-07-23T12:02:38;3.50;;;2.00;;
55718;SDS011;41623;46.104;19.656;2022-07-23T12:05:13;1.67;;;1.33;;
55718;SDS011;41623;46.104;19.656;2022-07-23T12:07:41;7.38;;;2.33;;
55718;SDS011;41623;46.104;19.656;2022-07-23T12:10:11;11.93;;;1.75;;
55718;SDS011;41623;46.104;19.656;2022-07-23T12:12:44;3.45;;;2.17;;
55718;SDS011;41623;46.104;19.656;2022-07-23T12:15:16;4.93;;;2.20;;
55718;SDS011;41623;46.104;19.656;2022-07-23T12:17:44;2.53;;;1.40;;
55718;SDS011;41623;46.104;19.656;2022-07-23T12:20:12;1.70;;;1.10;;
55718;SDS011;41623;46.104;19.656;2022-07-23T12:22:42;3.72;;;1.98;;
55718;SDS011;41623;46.104;19.656;2022-07-23T12:25:11;2.63;;;1.42;;
55718;SDS011;41623;46.104;19.656;2022-07-23T12:27:42;1.50;;;1.23;;
55718;SDS011;41623;46.104;19.656;2022-07-23T12:32:47;2.42;;;1.45;;
55718;SDS011;41623;46.104;19.656;2022-07-23T12:35:15;2.00;;;1.50;;
55718;SDS011;41623;46.104;19.656;2022-07-23T12:37:42;1.08;;;0.98;;
55718;SDS011;41623;46.104;19.656;2022-07-23T12:42:59;1.63;;;1.20;;
55718;SDS011;41623;46.104;19.656;2022-07-23T12:45:28;2.60;;;1.75;;
55718;SDS011;41623;46.104;19.656;2022-07-23T12:50:58;10.52;;;2.08;;
55718;SDS011;41623;46.104;19.656;2022-07-23T12:53:26;2.60;;;1.98;;
55718;SDS011;41623;46.104;19.656;2022-07-23T12:56:08;3.03;;;2.20;;
55718;SDS011;41623;46.104;19.656;2022-07-23T12:58:43;2.28;;;1.67;;
55718;SDS011;41623;46.104;19.656;2022-07-23T13:04:03;2.10;;;1.63;;
55718;SDS011;41623;46.104;19.656;2022-07-23T13:06:34;6.53;;;1.67;;
55718;SDS011;41623;46.104;19.656;2022-07-23T13:09:09;3.95;;;1.20;;
55718;SDS011;41623;46.104;19.656;2022-07-23T13:11:37;5.72;;;2.17;;
55718;SDS011;41623;46.104;19.656;2022-07-23T13:14:04;5.82;;;1.30;;
55718;SDS011;41623;46.104;19.656;2022-07-23T13:16:30;3.33;;;1.92;;
55718;SDS011;41623;46.104;19.656;2022-07-23T13:18:57;3.50;;;1.77;;
55718;SDS011;41623;46.104;19.656;2022-07-23T13:21:24;2.53;;;1.52;;
55718;SDS011;41623;46.104;19.656;2022-07-23T13:23:51;2.67;;;1.85;;
55718;SDS011;41623;46.104;19.656;2022-07-23T13:26:17;3.28;;;2.03;;
55718;SDS011;41623;46.104;19.656;2022-07-23T13:28:43;12.77;;;1.95;;
55718;SDS011;41623;46.104;19.656;2022-07-23T13:31:11;2.47;;;1.90;;
55718;SDS011;41623;46.104;19.656;2022-07-23T13:33:37;2.13;;;1.50;;
55718;SDS011;41623;46.104;19.656;2022-07-23T13:36:02;2.97;;;2.03;;
55718;SDS011;41623;46.104;19.656;2022-07-23T13:38:29;2.78;;;1.40;;
55718;SDS011;41623;46.104;19.656;2022-07-23T13:40:55;1.90;;;1.33;;
55718;SDS011;41623;46.104;19.656;2022-07-23T13:43:22;3.67;;;2.03;;
55718;SDS011;41623;46.104;19.656;2022-07-23T13:45:49;1.77;;;1.15;;
55718;SDS011;41623;46.104;19.656;2022-07-23T13:48:16;2.60;;;1.83;;
55718;SDS011;41623;46.104;19.656;2022-07-23T13:50:43;2.22;;;1.63;;
55718;SDS011;41623;46.104;19.656;2022-07-23T13:53:11;2.72;;;1.75;;
55718;SDS011;41623;46.104;19.656;2022-07-23T13:55:39;3.58;;;1.45;;
55718;SDS011;41623;46.104;19.656;2022-07-23T13:58:05;2.92;;;1.83;;
55718;SDS011;41623;46.104;19.656;2022-07-23T14:00:33;4.63;;;2.10;;
55718;SDS011;41623;46.104;19.656;2022-07-23T14:03:00;1.42;;;1.33;;
55718;SDS011;41623;46.104;19.656;2022-07-23T14:05:26;2.70;;;1.40;;
55718;SDS011;41623;46.104;19.656;2022-07-23T14:07:53;3.88;;;1.70;;
55718;SDS011;41623;46.104;19.656;2022-07-23T14:10:20;3.30;;;1.85;;
55718;SDS011;41623;46.104;19.656;2022-07-23T14:12:47;1.17;;;1.00;;
55718;SDS011;41623;46.104;19.656;2022-07-23T14:15:13;1.90;;;1.40;;
55718;SDS011;41623;46.104;19.656;2022-07-23T14:17:40;3.17;;;1.65;;
55718;SDS011;41623;46.104;19.656;2022-07-23T14:20:08;2.38;;;1.45;;
55718;SDS011;41623;46.104;19.656;2022-07-23T14:22:35;4.07;;;1.40;;
55718;SDS011;41623;46.104;19.656;2022-07-23T14:25:00;4.10;;;1.40;;
55718;SDS011;41623;46.104;19.656;2022-07-23T14:27:27;3.35;;;1.52;;
55718;SDS011;41623;46.104;19.656;2022-07-23T14:29:54;2.42;;;1.48;;
55718;SDS011;41623;46.104;19.656;2022-07-23T14:32:20;3.45;;;1.75;;
55718;SDS011;41623;46.104;19.656;2022-07-23T14:34:47;9.77;;;1.52;;
55718;SDS011;41623;46.104;19.656;2022-07-23T14:37:13;3.38;;;1.58;;
55718;SDS011;41623;46.104;19.656;2022-07-23T14:39:40;2.50;;;1.77;;
55718;SDS011;41623;46.104;19.656;2022-07-23T14:42:07;1.67;;;1.48;;
55718;SDS011;41623;46.104;19.656;2022-07-23T14:44:34;1.92;;;1.20;;
55718;SDS011;41623;46.104;19.656;2022-07-23T14:47:00;2.67;;;2.25;;
55718;SDS011;41623;46.104;19.656;2022-07-23T14:49:28;4.72;;;1.85;;
55718;SDS011;41623;46.104;19.656;2022-07-23T14:51:54;3.13;;;1.20;;
55718;SDS011;41623;46.104;19.656;2022-07-23T14:54:20;2.30;;;1.95;;
55718;SDS011;41623;46.104;19.656;2022-07-23T14:56:46;3.25;;;1.58;;
55718;SDS011;41623;46.104;19.656;2022-07-23T14:59:12;5.05;;;1.42;;
55718;SDS011;41623;46.104;19.656;2022-07-23T15:01:38;4.22;;;1.45;;
55718;SDS011;41623;46.104;19.656;2022-07-23T15:04:06;1.98;;;1.50;;
55718;SDS011;41623;46.104;19.656;2022-07-23T15:06:32;2.60;;;1.70;;
55718;SDS011;41623;46.104;19.656;2022-07-23T15:08:58;3.83;;;2.10;;
55718;SDS011;41623;46.104;19.656;2022-07-23T15:11:25;2.72;;;1.73;;
55718;SDS011;41623;46.104;19.656;2022-07-23T15:13:54;2.83;;;1.65;;
55718;SDS011;41623;46.104;19.656;2022-07-23T15:16:20;4.07;;;1.55;;
55718;SDS011;41623;46.104;19.656;2022-07-23T15:18:46;1.65;;;1.13;;
55718;SDS011;41623;46.104;19.656;2022-07-23T15:21:12;2.35;;;1.60;;
55718;SDS011;41623;46.104;19.656;2022-07-23T15:23:38;3.13;;;1.90;;
55718;SDS011;41623;46.104;19.656;2022-07-23T15:26:05;3.63;;;1.92;;
55718;SDS011;41623;46.104;19.656;2022-07-23T15:28:32;5.20;;;2.10;;
55718;SDS011;41623;46.104;19.656;2022-07-23T15:30:59;3.42;;;1.65;;
55718;SDS011;41623;46.104;19.656;2022-07-23T15:33:24;6.07;;;1.60;;